createdAt,value
2019-03-13T00:00:06.972Z,6.33
2019-03-13T00:02:37.470Z,6.80
2019-03-13T00:05:08.639Z,7.20
2019-03-13T00:07:37.989Z,6.77
2019-03-13T00:10:08.318Z,7.10
2019-03-13T00:12:37.740Z,6.27
2019-03-13T00:15:07.884Z,7.87
2019-03-13T00:17:37.259Z,6.07
2019-03-13T00:20:06.764Z,6.70
2019-03-13T00:22:36.156Z,6.07
2019-03-13T00:25:05.941Z,9.23
2019-03-13T00:27:35.260Z,6.00
2019-03-13T00:30:05.032Z,9.63
2019-03-13T00:32:34.435Z,7.70
2019-03-13T00:35:03.775Z,5.27
2019-03-13T00:37:33.127Z,5.27
2019-03-13T00:40:02.510Z,4.77
2019-03-13T00:42:31.884Z,4.40
2019-03-13T00:45:01.196Z,8.57
2019-03-13T00:47:30.566Z,3.67
2019-03-13T00:49:59.937Z,3.30
2019-03-13T00:52:29.285Z,6.73
2019-03-13T00:54:58.646Z,4.10
2019-03-13T00:57:28.032Z,4.07
2019-03-13T00:59:57.387Z,3.37
2019-03-13T01:02:36.024Z,5.07
2019-03-13T01:05:25.571Z,2.43
2019-03-13T01:07:54.911Z,5.20
2019-03-13T01:10:24.211Z,4.07
2019-03-13T01:12:53.574Z,4.23
2019-03-13T01:15:22.925Z,4.00
2019-03-13T01:17:52.244Z,2.77
2019-03-13T01:20:21.571Z,3.20
2019-03-13T01:22:50.932Z,5.10
2019-03-13T01:25:20.249Z,5.10
2019-03-13T01:27:49.564Z,3.53
2019-03-13T01:30:19.019Z,5.20
2019-03-13T01:32:53.064Z,4.57
2019-03-13T01:35:41.355Z,3.80
2019-03-13T01:38:10.775Z,8.57
2019-03-13T01:40:40.241Z,4.50
2019-03-13T01:43:09.570Z,5.23
2019-03-13T01:45:38.892Z,7.37
2019-03-13T01:48:08.176Z,4.43
2019-03-13T01:50:37.500Z,6.30
2019-03-13T01:53:06.809Z,8.23
2019-03-13T01:55:36.147Z,6.90
2019-03-13T01:58:05.460Z,8.50
2019-03-13T02:00:34.992Z,5.07
2019-03-13T02:03:04.367Z,6.03
2019-03-13T02:05:33.648Z,7.67
2019-03-13T02:08:02.973Z,13.03
2019-03-13T02:10:32.349Z,4.93
2019-03-13T02:13:01.640Z,8.53
2019-03-13T02:15:30.963Z,8.23
2019-03-13T02:18:00.388Z,6.70
2019-03-13T02:20:30.280Z,10.13
2019-03-13T02:22:59.662Z,10.30
2019-03-13T02:25:29.032Z,7.37
2019-03-13T02:27:58.471Z,7.77
2019-03-13T02:30:28.986Z,8.77
2019-03-13T02:32:58.394Z,12.47
2019-03-13T02:35:27.689Z,6.93
2019-03-13T02:37:56.993Z,7.03
2019-03-13T02:40:26.368Z,8.23
2019-03-13T02:42:55.720Z,8.37
2019-03-13T02:45:25.066Z,14.73
2019-03-13T02:47:54.452Z,11.90
2019-03-13T02:50:23.905Z,8.10
2019-03-13T02:52:53.284Z,12.00
2019-03-13T02:55:22.676Z,5.57
2019-03-13T02:57:51.990Z,13.67
2019-03-13T03:00:29.142Z,11.00
2019-03-13T03:03:00.760Z,10.43
2019-03-13T03:05:30.197Z,11.37
2019-03-13T03:07:59.541Z,8.67
2019-03-13T03:10:28.818Z,11.53
2019-03-13T03:12:58.175Z,13.03
2019-03-13T03:15:27.480Z,12.77
2019-03-13T03:17:56.821Z,10.87
2019-03-13T03:20:26.124Z,19.40
2019-03-13T03:22:55.468Z,15.50
2019-03-13T03:25:24.820Z,14.00
2019-03-13T03:27:54.189Z,17.87
2019-03-13T03:30:23.778Z,12.53
2019-03-13T03:32:53.158Z,11.13
2019-03-13T03:35:22.493Z,6.23
2019-03-13T03:37:51.799Z,9.83
2019-03-13T03:40:23.083Z,10.77
2019-03-13T03:42:52.401Z,9.77
2019-03-13T03:45:21.803Z,10.70
2019-03-13T03:47:51.100Z,7.30
2019-03-13T03:50:20.438Z,7.63
2019-03-13T03:52:49.712Z,13.70
2019-03-13T03:55:19.066Z,12.87
2019-03-13T03:57:48.544Z,13.27
2019-03-13T04:00:17.879Z,14.10
2019-03-13T04:02:47.268Z,12.00
2019-03-13T04:05:16.685Z,8.77
2019-03-13T04:07:45.986Z,9.93
2019-03-13T04:10:15.344Z,10.60
2019-03-13T04:12:44.752Z,8.83
2019-03-13T04:15:14.315Z,10.90
2019-03-13T04:17:43.944Z,14.47
2019-03-13T04:20:13.364Z,9.83
2019-03-13T04:22:42.671Z,11.80
2019-03-13T04:25:37.514Z,11.60
2019-03-13T04:28:07.389Z,7.93
2019-03-13T04:30:36.692Z,12.53
2019-03-13T04:33:06.151Z,9.67
2019-03-13T04:35:35.484Z,16.27
2019-03-13T04:38:04.826Z,14.77
2019-03-13T04:40:34.173Z,11.43
2019-03-13T04:43:03.561Z,17.97
2019-03-13T04:45:32.892Z,9.30
2019-03-13T04:48:02.293Z,13.57
2019-03-13T04:50:31.607Z,12.50
2019-03-13T04:53:00.974Z,10.67
2019-03-13T04:55:30.311Z,11.80
2019-03-13T04:57:59.679Z,11.33
2019-03-13T05:00:29.035Z,13.37
2019-03-13T05:02:58.380Z,10.23
2019-03-13T05:06:15.006Z,16.97
2019-03-13T05:08:47.280Z,12.47
2019-03-13T05:11:16.617Z,13.03
2019-03-13T05:13:46.003Z,12.33
2019-03-13T05:16:15.341Z,12.33
2019-03-13T05:18:44.789Z,12.10
2019-03-13T05:21:14.084Z,7.73
2019-03-13T05:23:43.388Z,6.43
2019-03-13T05:26:12.821Z,16.47
2019-03-13T05:28:42.137Z,16.20
2019-03-13T05:31:11.545Z,13.37
2019-03-13T05:33:40.905Z,15.33
2019-03-13T05:36:10.222Z,15.43
2019-03-13T05:38:39.608Z,12.37
2019-03-13T05:41:08.989Z,11.70
2019-03-13T05:43:38.316Z,12.73
2019-03-13T05:46:07.721Z,11.17
2019-03-13T05:48:37.182Z,11.77
2019-03-13T05:51:06.703Z,10.23
2019-03-13T05:53:36.134Z,13.10
2019-03-13T05:56:05.648Z,12.37
2019-03-13T05:58:35.052Z,14.77
2019-03-13T06:01:04.469Z,18.27
2019-03-13T06:03:33.841Z,12.27
2019-03-13T06:06:03.135Z,15.17
2019-03-13T06:08:32.507Z,9.00
2019-03-13T06:11:01.897Z,8.70
2019-03-13T06:13:31.355Z,12.20
2019-03-13T06:16:00.873Z,15.00
2019-03-13T06:18:30.190Z,15.37
2019-03-13T06:20:59.721Z,16.13
2019-03-13T06:23:29.040Z,10.03
2019-03-13T06:25:58.488Z,13.20
2019-03-13T06:28:27.915Z,16.13
2019-03-13T06:30:57.256Z,12.33
2019-03-13T06:33:26.769Z,15.50
2019-03-13T06:35:56.180Z,12.77
2019-03-13T06:38:25.541Z,31.40
2019-03-13T06:40:54.852Z,19.40
2019-03-13T06:43:24.226Z,11.93
2019-03-13T06:45:53.631Z,15.83
2019-03-13T06:48:23.052Z,13.90
2019-03-13T06:50:52.537Z,13.90
2019-03-13T06:53:22.536Z,21.80
2019-03-13T06:55:52.046Z,14.60
2019-03-13T06:58:31.320Z,14.23
2019-03-13T07:01:17.972Z,17.27
2019-03-13T07:04:05.213Z,16.27
2019-03-13T07:06:50.289Z,14.23
2019-03-13T07:09:47.769Z,14.47
2019-03-13T07:12:31.163Z,13.60
2019-03-13T07:15:19.471Z,11.13
2019-03-13T07:18:11.110Z,13.93
2019-03-13T07:21:51.355Z,13.00
2019-03-13T07:23:57.025Z,12.60
2019-03-13T07:26:36.375Z,10.70
2019-03-13T07:29:39.655Z,18.77
2019-03-13T07:32:30.753Z,13.87
2019-03-13T07:35:19.164Z,13.27
2019-03-13T07:38:10.296Z,11.23
2019-03-13T07:41:00.340Z,13.67
2019-03-13T07:43:53.701Z,17.00
2019-03-13T07:46:34.495Z,12.93
2019-03-13T07:49:19.190Z,15.23
2019-03-13T07:52:10.440Z,7.13
2019-03-13T07:55:07.743Z,9.37
2019-03-13T07:57:50.248Z,11.37
2019-03-13T08:00:32.327Z,14.13
2019-03-13T08:03:32.560Z,7.77
2019-03-13T08:06:19.680Z,8.47
2019-03-13T08:09:02.298Z,13.53
2019-03-13T08:11:48.996Z,10.07
2019-03-13T08:14:40.085Z,14.70
2019-03-13T08:17:17.844Z,9.03
2019-03-13T08:20:04.899Z,9.60
2019-03-13T08:22:51.948Z,13.67
2019-03-13T08:25:41.068Z,10.30
2019-03-13T08:28:23.354Z,14.33
2019-03-13T08:31:03.465Z,6.93
2019-03-13T08:34:06.708Z,13.60
2019-03-13T08:36:46.027Z,13.53
2019-03-13T08:39:24.754Z,10.00
2019-03-13T08:42:13.045Z,13.17
2019-03-13T08:45:01.407Z,10.20
2019-03-13T08:47:52.873Z,11.37
2019-03-13T08:50:53.058Z,7.20
2019-03-13T08:53:35.162Z,12.33
2019-03-13T08:56:26.492Z,8.93
2019-03-13T08:59:13.139Z,12.43
2019-03-13T09:02:16.455Z,12.13
2019-03-13T09:04:52.804Z,11.73
2019-03-13T09:07:40.407Z,8.97
2019-03-13T09:10:37.105Z,13.50
2019-03-13T09:13:23.551Z,10.50
2019-03-13T09:16:08.793Z,11.87
2019-03-13T09:18:55.507Z,12.77
2019-03-13T09:21:43.876Z,6.37
2019-03-13T09:24:38.281Z,8.87
2019-03-13T09:27:33.034Z,9.47
2019-03-13T09:30:24.381Z,13.97
2019-03-13T09:33:09.821Z,14.03
2019-03-13T09:35:47.294Z,8.23
2019-03-13T09:38:25.622Z,13.20
2019-03-13T09:41:14.020Z,17.70
2019-03-13T09:44:00.941Z,16.47
2019-03-13T09:46:38.338Z,9.20
2019-03-13T09:49:24.994Z,10.87
2019-03-13T09:52:04.007Z,13.40
2019-03-13T09:54:48.694Z,12.87
2019-03-13T09:57:39.810Z,15.13
2019-03-13T10:00:28.150Z,6.80
2019-03-13T10:03:19.637Z,9.97
2019-03-13T10:06:00.303Z,9.63
2019-03-13T10:08:48.604Z,15.53
2019-03-13T10:11:34.364Z,8.03
2019-03-13T10:14:21.958Z,9.90
2019-03-13T10:17:16.386Z,10.73
2019-03-13T10:20:03.387Z,10.57
2019-03-13T10:22:47.638Z,10.83
2019-03-13T10:25:41.715Z,8.47
2019-03-13T10:28:38.881Z,14.97
2019-03-13T10:31:42.206Z,14.63
2019-03-13T10:34:36.086Z,11.30
2019-03-13T10:37:11.684Z,7.13
2019-03-13T10:39:48.321Z,14.83
2019-03-13T10:42:42.757Z,12.23
2019-03-13T10:45:31.230Z,14.03
2019-03-13T10:48:23.254Z,10.90
2019-03-13T10:51:14.598Z,11.17
2019-03-13T10:54:01.590Z,11.20
2019-03-13T10:56:50.000Z,9.37
2019-03-13T10:59:37.072Z,7.93
2019-03-13T11:02:12.628Z,10.87
2019-03-13T11:05:04.156Z,10.43
2019-03-13T11:07:53.105Z,5.73
2019-03-13T11:10:38.000Z,10.03
2019-03-13T11:13:18.398Z,5.63
2019-03-13T11:16:04.919Z,9.23
2019-03-13T11:18:39.904Z,11.57
2019-03-13T11:21:20.884Z,7.03
2019-03-13T11:24:07.858Z,5.00
2019-03-13T11:26:52.396Z,6.87
2019-03-13T11:29:46.658Z,4.03
2019-03-13T11:32:33.489Z,8.33
2019-03-13T11:35:37.043Z,6.40
2019-03-13T11:38:37.647Z,7.57
2019-03-13T11:41:19.055Z,6.83
2019-03-13T11:44:07.500Z,4.57
2019-03-13T11:46:58.741Z,4.73
2019-03-13T11:49:38.663Z,7.93
2019-03-13T11:52:45.204Z,5.03
2019-03-13T11:55:33.629Z,10.17
2019-03-13T11:58:27.972Z,9.60
2019-03-13T12:01:12.075Z,9.90
2019-03-13T12:04:00.604Z,5.70
2019-03-13T12:06:55.017Z,10.00
2019-03-13T12:09:58.352Z,6.87
2019-03-13T12:12:49.765Z,8.23
2019-03-13T12:15:50.073Z,6.90
2019-03-13T12:18:38.517Z,11.37
2019-03-13T12:21:39.015Z,9.17
2019-03-13T12:24:42.384Z,9.10
2019-03-13T12:27:26.542Z,12.77
2019-03-13T12:30:13.220Z,9.07
2019-03-13T12:33:00.123Z,9.57
2019-03-13T12:35:49.847Z,8.13
2019-03-13T12:38:27.011Z,7.57
2019-03-13T12:41:05.407Z,8.07
2019-03-13T12:43:56.777Z,10.20
2019-03-13T12:46:54.020Z,5.60
2019-03-13T12:49:49.206Z,9.77
2019-03-13T12:52:30.191Z,9.47
2019-03-13T12:55:24.286Z,13.33
2019-03-13T12:58:23.664Z,9.80
2019-03-13T13:01:10.387Z,7.77
2019-03-13T13:04:00.004Z,7.87
2019-03-13T13:06:54.582Z,7.50
2019-03-13T13:10:07.248Z,6.33
2019-03-13T13:12:53.598Z,9.27
2019-03-13T13:15:33.820Z,7.60
2019-03-13T13:18:20.520Z,10.27
2019-03-13T13:20:49.881Z,10.53
2019-03-13T13:23:19.191Z,9.20
2019-03-13T13:25:48.548Z,6.77
2019-03-13T13:28:18.001Z,7.40
2019-03-13T13:30:47.424Z,7.13
2019-03-13T13:33:16.764Z,9.83
2019-03-13T13:35:46.116Z,6.97
2019-03-13T13:38:15.489Z,8.20
2019-03-13T13:40:44.849Z,7.03
2019-03-13T13:43:14.240Z,6.23
2019-03-13T13:45:46.211Z,4.57
2019-03-13T13:48:15.608Z,6.63
2019-03-13T13:50:44.983Z,8.30
2019-03-13T13:53:14.325Z,7.30
2019-03-13T13:55:43.694Z,8.07
2019-03-13T13:58:13.030Z,4.97
2019-03-13T14:00:42.346Z,7.93
2019-03-13T14:03:11.713Z,6.47
2019-03-13T14:05:41.304Z,7.40
2019-03-13T14:08:10.725Z,9.80
2019-03-13T14:10:40.065Z,15.20
2019-03-13T14:13:09.449Z,9.33
2019-03-13T14:15:38.786Z,11.80
2019-03-13T14:18:08.435Z,11.40
2019-03-13T14:20:37.867Z,8.37
2019-03-13T14:23:07.277Z,12.47
2019-03-13T14:25:36.927Z,11.80
2019-03-13T14:28:07.762Z,11.07
2019-03-13T14:30:37.371Z,13.83
2019-03-13T14:33:07.006Z,13.47
2019-03-13T14:35:36.394Z,12.00
2019-03-13T14:38:05.825Z,13.43
2019-03-13T14:40:35.141Z,11.23
2019-03-13T14:43:04.498Z,13.63
2019-03-13T14:45:33.845Z,15.63
2019-03-13T14:48:03.422Z,10.07
2019-03-13T14:50:32.828Z,15.20
2019-03-13T14:53:02.460Z,7.50
2019-03-13T14:55:31.911Z,5.93
2019-03-13T14:58:01.287Z,6.27
2019-03-13T15:00:30.556Z,6.30
2019-03-13T15:02:59.953Z,10.60
2019-03-13T15:05:29.318Z,6.60
2019-03-13T15:07:58.757Z,9.53
2019-03-13T15:10:28.224Z,9.57
2019-03-13T15:12:57.718Z,14.00
2019-03-13T15:15:27.008Z,14.40
2019-03-13T15:17:56.427Z,8.80
2019-03-13T15:20:25.774Z,8.43
2019-03-13T15:22:55.208Z,14.07
2019-03-13T15:25:24.557Z,8.60
2019-03-13T15:27:53.907Z,12.60
2019-03-13T15:30:23.355Z,9.00
2019-03-13T15:32:52.785Z,10.43
2019-03-13T15:35:22.173Z,13.50
2019-03-13T15:37:51.516Z,12.30
2019-03-13T15:40:20.921Z,12.03
2019-03-13T15:42:50.294Z,12.13
2019-03-13T15:45:20.326Z,11.57
2019-03-13T15:47:49.766Z,11.60
2019-03-13T15:50:19.187Z,15.30
2019-03-13T15:52:48.583Z,16.27
2019-03-13T15:55:18.006Z,12.97
2019-03-13T15:57:47.465Z,15.67
2019-03-13T16:00:21.799Z,13.27
2019-03-13T16:02:51.213Z,16.00
2019-03-13T16:05:20.559Z,17.60
2019-03-13T16:07:50.072Z,16.13
2019-03-13T16:10:19.631Z,14.73
2019-03-13T16:12:49.069Z,13.83
2019-03-13T16:15:19.771Z,16.80
2019-03-13T16:17:49.116Z,13.73
2019-03-13T16:20:18.679Z,14.07
2019-03-13T16:22:52.809Z,12.57
2019-03-13T16:25:22.241Z,7.20
2019-03-13T16:27:51.651Z,5.83
2019-03-13T16:30:21.871Z,4.47
2019-03-13T16:32:51.209Z,2.07
2019-03-13T16:35:20.598Z,2.37
2019-03-13T16:37:49.953Z,3.60
2019-03-13T16:40:19.454Z,3.63
2019-03-13T16:42:48.757Z,2.20
2019-03-13T16:45:19.137Z,4.07
2019-03-13T16:48:07.446Z,2.93
2019-03-13T16:53:19.683Z,4.07
2019-03-13T16:55:49.009Z,4.27
2019-03-13T16:58:18.364Z,3.30
2019-03-13T17:00:50.442Z,3.00
2019-03-13T17:03:18.805Z,4.87
2019-03-13T17:05:48.137Z,6.10
2019-03-13T17:08:17.556Z,5.20
2019-03-13T17:10:46.946Z,5.77
2019-03-13T17:13:16.388Z,5.77
2019-03-13T17:15:45.960Z,4.27
2019-03-13T17:18:15.296Z,2.70
2019-03-13T17:20:44.770Z,3.63
2019-03-13T17:23:14.130Z,5.77
2019-03-13T17:25:43.492Z,4.97
2019-03-13T17:28:12.840Z,8.63
2019-03-13T17:30:42.207Z,6.40
2019-03-13T17:33:11.586Z,6.43
2019-03-13T17:35:40.880Z,7.97
2019-03-13T17:38:10.343Z,6.53
2019-03-13T17:40:39.945Z,6.97
2019-03-13T17:43:09.418Z,6.93
2019-03-13T17:45:38.721Z,10.43
2019-03-13T17:48:08.189Z,9.13
2019-03-13T17:50:37.682Z,9.33
2019-03-13T17:53:07.038Z,10.97
2019-03-13T17:55:36.423Z,9.17
2019-03-13T17:58:05.777Z,9.17
2019-03-13T18:00:49.747Z,9.30
2019-03-13T18:03:19.424Z,8.33
2019-03-13T18:05:48.876Z,11.90
2019-03-13T18:08:18.255Z,10.47
2019-03-13T18:10:47.623Z,8.73
2019-03-13T18:13:16.942Z,6.23
2019-03-13T18:15:46.331Z,6.67
2019-03-13T18:18:16.270Z,10.00
2019-03-13T18:20:45.872Z,9.87
2019-03-13T18:23:15.368Z,7.67
2019-03-13T18:25:44.913Z,15.80
2019-03-13T18:28:17.176Z,9.60
2019-03-13T18:30:46.572Z,7.53
2019-03-13T18:33:16.177Z,6.93
2019-03-13T18:35:46.191Z,9.90
2019-03-13T18:38:15.606Z,6.63
2019-03-13T18:40:45.051Z,6.93
2019-03-13T18:43:14.468Z,9.47
2019-03-13T18:45:43.923Z,13.03
2019-03-13T18:48:13.377Z,12.03
2019-03-13T18:50:42.913Z,9.23
2019-03-13T18:53:12.641Z,11.40
2019-03-13T18:55:42.130Z,10.23
2019-03-13T18:58:13.993Z,14.83
2019-03-13T19:00:42.961Z,15.57
2019-03-13T19:03:12.550Z,14.87
2019-03-13T19:05:42.465Z,11.60
2019-03-13T19:08:12.066Z,17.13
2019-03-13T19:10:41.561Z,17.00
2019-03-13T19:13:10.988Z,15.10
2019-03-13T19:15:40.657Z,13.93
2019-03-13T19:18:10.115Z,10.87
2019-03-13T19:20:39.480Z,13.70
2019-03-13T19:23:08.950Z,9.50
2019-03-13T19:25:38.391Z,14.60
2019-03-13T19:28:07.831Z,19.20
2019-03-13T19:30:37.931Z,17.07
2019-03-13T19:33:07.959Z,18.20
2019-03-13T19:35:37.376Z,18.10
2019-03-13T19:38:07.002Z,22.90
2019-03-13T19:40:36.565Z,29.43
2019-03-13T19:43:06.070Z,17.37
2019-03-13T19:45:37.656Z,13.70
2019-03-13T19:48:07.257Z,18.97
2019-03-13T19:50:36.799Z,17.77
2019-03-13T19:53:06.283Z,19.33
2019-03-13T19:55:36.423Z,13.17
2019-03-13T19:58:06.134Z,12.23
2019-03-13T20:00:35.569Z,17.90
2019-03-13T20:03:05.635Z,15.40
2019-03-13T20:05:44.759Z,12.37
2019-03-13T20:08:06.452Z,8.37
2019-03-13T20:10:36.288Z,10.10
2019-03-13T20:13:05.860Z,11.20
2019-03-13T20:15:35.526Z,9.50
2019-03-13T20:18:05.192Z,10.47
2019-03-13T20:20:34.728Z,17.70
2019-03-13T20:23:04.143Z,12.20
2019-03-13T20:25:33.709Z,6.57
2019-03-13T20:28:03.102Z,14.50
2019-03-13T20:30:33.114Z,11.97
2019-03-13T20:33:02.626Z,11.67
2019-03-13T20:35:32.010Z,16.53
2019-03-13T20:38:01.569Z,12.03
2019-03-13T20:40:31.149Z,12.07
2019-03-13T20:43:02.232Z,18.47
2019-03-13T20:45:32.192Z,12.47
2019-03-13T20:48:01.975Z,22.13
2019-03-13T20:50:37.290Z,21.27
2019-03-13T20:53:02.634Z,13.73
2019-03-13T20:55:32.023Z,18.53
2019-03-13T20:58:01.512Z,24.97
2019-03-13T21:00:30.938Z,16.37
2019-03-13T21:03:00.325Z,23.57
2019-03-13T21:05:29.788Z,21.70
2019-03-13T21:07:59.270Z,15.53
2019-03-13T21:10:30.623Z,20.70
2019-03-13T21:13:00.181Z,20.00
2019-03-13T21:15:30.026Z,25.53
2019-03-13T21:17:59.693Z,26.30
2019-03-13T21:20:29.429Z,18.07
2019-03-13T21:22:58.980Z,16.67
2019-03-13T21:25:28.444Z,18.80
2019-03-13T21:27:57.950Z,16.07
2019-03-13T21:30:27.755Z,13.20
2019-03-13T21:32:57.242Z,16.50
2019-03-13T21:35:26.670Z,16.80
2019-03-13T21:37:56.276Z,20.73
2019-03-13T21:40:25.747Z,18.37
2019-03-13T21:42:55.731Z,15.10
2019-03-13T21:45:25.346Z,14.60
2019-03-13T21:47:54.924Z,18.63
2019-03-13T21:50:26.961Z,16.07
2019-03-13T21:52:56.490Z,15.67
2019-03-13T21:55:27.290Z,16.70
2019-03-13T21:57:57.241Z,15.03
2019-03-13T22:00:26.670Z,14.67
2019-03-13T22:02:56.356Z,19.87
2019-03-13T22:05:27.203Z,11.20
2019-03-13T22:07:56.969Z,18.77
2019-03-13T22:10:26.416Z,12.73
2019-03-13T22:12:56.820Z,16.17
2019-03-13T22:15:26.258Z,11.50
2019-03-13T22:17:55.734Z,12.27
2019-03-13T22:20:25.112Z,15.23
2019-03-13T22:22:54.431Z,17.63
2019-03-13T22:25:23.832Z,11.70
2019-03-13T22:27:53.165Z,21.23
2019-03-13T22:30:22.748Z,12.83
2019-03-13T22:32:52.330Z,13.50
2019-03-13T22:35:21.790Z,10.43
2019-03-13T22:37:51.180Z,9.57
2019-03-13T22:40:21.063Z,11.43
2019-03-13T22:42:50.497Z,8.40
2019-03-13T22:45:19.989Z,13.73
2019-03-13T22:47:49.462Z,15.27
2019-03-13T22:50:20.638Z,13.73
2019-03-13T22:52:50.169Z,12.80
2019-03-13T22:55:19.546Z,9.40
2019-03-13T22:57:48.992Z,7.30
2019-03-13T23:00:56.124Z,13.53
2019-03-13T23:03:26.843Z,10.53
2019-03-13T23:05:56.241Z,7.20
2019-03-13T23:08:25.569Z,7.90
2019-03-13T23:10:55.123Z,4.20
2019-03-13T23:13:24.912Z,6.93
2019-03-13T23:15:54.448Z,8.60
2019-03-13T23:18:24.223Z,7.03
2019-03-13T23:20:53.655Z,4.67
2019-03-13T23:23:25.199Z,7.27
2019-03-13T23:25:54.774Z,9.03
2019-03-13T23:28:24.207Z,6.77
2019-03-13T23:30:53.596Z,10.97
2019-03-13T23:33:23.170Z,6.07
2019-03-13T23:35:52.530Z,7.47
2019-03-13T23:38:21.888Z,12.40
2019-03-13T23:40:51.297Z,13.63
2019-03-13T23:43:20.655Z,9.33
2019-03-13T23:45:50.047Z,10.23
2019-03-13T23:48:19.401Z,11.73
2019-03-13T23:50:48.748Z,10.40
2019-03-13T23:53:18.148Z,7.50
2019-03-13T23:55:47.547Z,6.73
2019-03-13T23:58:16.831Z,11.27
